CheckWX is a tool to help pilots better visualize weather data.  It is not intended as a substitute for an official pre-flight weather briefing.

13:18:41 UTC

HKML TAF
Malindi Airport
Malindi, Kenya
TAF HKML 161100Z 1612/1712 18015KT 9999 FEW024CB BKN080 BECMG 1618/1621 FEW022 BECMG 1700/1706 20010KT SCT022 BECMG 1709/1712 19015KT FEW025CB SCT080

Jun-16@
12:00 UTC

Jun-16 @ 12:00 UTC

Jun-16@
18:00 UTC

Jun-16 @ 18:00 UTC

TAF HKML 161100Z 1612/1712 18015KT 9999 FEW024CB BKN080
Wind
  • 180° at 15 KTS
Cloud Levels
  • Few at 2,400' AGL
  • Broken at 8,000' AGL

Jun-16@
18:00 UTC

Jun-16 @ 18:00 UTC

Jun-17@
00:00 UTC

Jun-17 @ 00:00 UTC

BECMG 1618/1621 FEW022

Becoming

Becoming Conditions expected by Sun, Jun 16, 2019 @ 21:00 UTC

Wind
  • 180° at 15 KTS
Cloud Levels
  • Few at 2,200' AGL

Jun-17@
00:00 UTC

Jun-17 @ 00:00 UTC

Jun-17@
09:00 UTC

Jun-17 @ 09:00 UTC

BECMG 1700/1706 20010KT SCT022

Becoming

Becoming Conditions expected by Mon, Jun 17, 2019 @ 06:00 UTC

Wind
  • 200° at 10 KTS
Cloud Levels
  • Scattered at 2,200' AGL

Jun-17@
09:00 UTC

Jun-17 @ 09:00 UTC

Jun-17@
12:00 UTC

Jun-17 @ 12:00 UTC

BECMG 1709/1712 19015KT FEW025CB SCT080

Becoming

Becoming Conditions expected by Mon, Jun 17, 2019 @ 12:00 UTC

Wind
  • 190° at 15 KTS
Cloud Levels
  • Few at 2,500' AGL
  • Scattered at 8,000' AGL